Flight Track Log - Related Links

Times and Time Zones

All times are in EDT time to prevent confusion due to time zone crossing. See the TRS587 flight status page for this flight to view local times or setup timezone preferences in your user account.

Time Position Orientation Groundspeed Altitude Reporting Facility
EDT Latitude Longitude Course Direction KTS MPH feet Rate Location/Type
Fri 10:33:42 AM 28.4000 -81.3000 270° West 176 203 900  Level Orlando TRACON
Fri 10:34:54 AM 28.3500 -81.3333 210° Southwest 229 264 2,700 1,417 Climbing Orlando TRACON
Fri 10:35:49 AM 28.3333 -81.4000 254° West 247 284 3,900 1,654 Climbing Orlando TRACON
Fri 10:37:01 AM 28.3333 -81.5000 270° West 277 319 6,200 2,000 Climbing Orlando TRACON
Fri 10:37:55 AM 28.3333 -81.5833 270° West 281 323 8,100 1,630 Climbing Orlando TRACON
Fri 10:39:00 AM 28.4167 -82.0693 270° West  Level FlightAware Approximate
Fri 10:39:54 AM 28.3119 -81.7728 263° West 310 357 10,900  Level Jacksonville Center
Fri 10:40:54 AM 28.3275 -81.8786 280° West 323 372 11,900 1,100 Climbing Jacksonville Center
Fri 10:41:54 AM 28.3806 -81.9819 300° West 347 399 13,100 1,350 Climbing Jacksonville Center
Fri 10:42:54 AM 28.4333 -82.0853 300° West 367 422 14,600 1,450 Climbing Jacksonville Center
Fri 10:43:54 AM 28.4881 -82.1981 299° West 387 445 16,000 1,350 Climbing Jacksonville Center
Fri 10:44:54 AM 28.5450 -82.3089 300° West 394 453 17,300 1,400 Climbing Jacksonville Center
Fri 10:45:54 AM 28.6039 -82.4219 301° West 405 466 18,800 1,450 Climbing Jacksonville Center
Fri 10:46:54 AM 28.6628 -82.5400 300° West 415 478 20,200 1,350 Climbing Jacksonville Center
Fri 10:47:54 AM 28.7194 -82.6417 302° West 421 484 21,500 1,250 Climbing Jacksonville Center
Fri 10:48:54 AM 28.7842 -82.7622 302° West 431 496 22,700 1,100 Climbing Jacksonville Center
Fri 10:49:54 AM 28.8908 -82.8239 333° Northwest 412 474 23,700 950 Climbing Jacksonville Center
Fri 10:50:54 AM 29.0119 -82.8642 344° North 418 481 24,600 950 Climbing Jacksonville Center
Fri 10:51:54 AM 29.1328 -82.9022 345° North 435 501 25,600 900 Climbing Jacksonville Center
Fri 10:52:54 AM 29.2561 -82.9403 345° North 446 513 26,400 850 Climbing Jacksonville Center
Fri 10:53:54 AM 29.3814 -82.9808 344° North 451 519 27,300 900 Climbing Jacksonville Center
Fri 10:54:54 AM 29.5169 -83.0261 344° North 456 525 28,200 950 Climbing Jacksonville Center
Fri 10:55:54 AM 29.6422 -83.0694 343° North 464 534 29,200 1,000 Climbing Jacksonville Center
Fri 10:56:54 AM 29.7611 -83.1247 338° Northwest 459 528 30,200 1,000 Climbing Jacksonville Center
Fri 10:57:54 AM 29.8800 -83.1825 337° Northwest 459 528 31,200 900 Climbing Jacksonville Center
Fri 10:58:54 AM 29.9925 -83.2356 338° Northwest 446 513 32,000 400 Climbing Jacksonville Center
Fri 10:59:54 AM 30.1136 -83.2889 339° North 451 519 32,000  Level Jacksonville Center
Fri 11:00:54 AM 30.2303 -83.3444 338° Northwest 456 525 32,000  Level Jacksonville Center
Fri 11:01:54 AM 30.3469 -83.3956 339° North 451 519 32,000  Level Jacksonville Center
Fri 11:02:54 AM 30.4636 -83.4542 337° Northwest 451 519 32,000  Level Jacksonville Center
Fri 11:03:54 AM 30.5803 -83.5056 339° North 451 519 32,000  Level Jacksonville Center
Fri 11:04:54 AM 30.6950 -83.5617 337° Northwest 451 519 32,000 250 Level Jacksonville Center
Fri 11:05:54 AM 30.8053 -83.6158 337° Northwest 451 519 32,500 600 Climbing Jacksonville Center
Fri 11:06:54 AM 30.9239 -83.6725 338° Northwest 446 513 33,200 700 Climbing Jacksonville Center
Fri 11:07:54 AM 31.0406 -83.7267 338° Northwest 446 513 33,900 302 Climbing Jacksonville Center
Fri 11:09:33 AM 31.2183 -83.8131 337° Northwest 461 531 34,000 38 Climbing Atlanta Center
Fri 11:10:33 AM 31.3333 -83.8711 337° Northwest 455 524 34,000  Level Atlanta Center
Fri 11:11:33 AM 31.4522 -83.9269 338° Northwest 455 524 34,000  Level Atlanta Center
Fri 11:12:33 AM 31.5817 -83.9781 341° North 455 524 34,000  Level Atlanta Center
Fri 11:13:33 AM 31.7092 -84.0072 349° North 450 518 34,000  Level Atlanta Center
Fri 11:14:33 AM 31.8322 -84.0317 350° North 450 518 34,000  Level Atlanta Center
Fri 11:15:33 AM 31.9553 -84.0583 350° North 450 518 34,000  Level Atlanta Center
Fri 11:16:33 AM 32.0783 -84.0831 350° North 450 518 34,000  Level Atlanta Center
Fri 11:17:33 AM 32.2017 -84.1125 349° North 450 518 34,000  Level Atlanta Center
Fri 11:18:33 AM 32.3228 -84.1397 349° North 450 518 34,000  Level Atlanta Center
Fri 11:19:33 AM 32.4458 -84.1669 349° North 450 518 34,000  Level Atlanta Center
Fri 11:20:33 AM 32.5711 -84.1942 350° North 450 518 34,000  Level Atlanta Center
Fri 11:21:33 AM 32.6961 -84.2239 349° North 450 518 34,000  Level Atlanta Center
Fri 11:22:33 AM 32.8172 -84.2489 350° North 450 518 34,000  Level Atlanta Center
Fri 11:23:33 AM 32.9425 -84.2789 349° North 450 518 34,000  Level Atlanta Center
Fri 11:24:33 AM 33.0656 -84.3089 348° North 450 518 34,000  Level Atlanta Center
Fri 11:25:33 AM 33.1886 -84.3367 349° North 450 518 34,000  Level Atlanta Center
Fri 11:26:33 AM 33.3136 -84.3669 349° North 450 518 34,000  Level Atlanta Center
Fri 11:27:33 AM 33.4369 -84.3922 350° North 450 518 34,000  Level Atlanta Center
Fri 11:28:33 AM 33.5600 -84.4203 349° North 450 518 34,000  Level Atlanta Center
Fri 11:29:33 AM 33.6831 -84.4508 348° North 450 518 34,000  Level Atlanta Center
Fri 11:30:33 AM 33.8061 -84.4814 348° North 445 512 34,000  Level Atlanta Center
Fri 11:31:33 AM 33.9331 -84.5119 349° North 450 518 34,000  Level Atlanta Center
Fri 11:32:33 AM 34.0458 -84.5353 350° North 450 518 34,000  Level Atlanta Center
Fri 11:33:33 AM 34.1897 -84.5711 348° North 467 537 34,000  Level Atlanta Center
Fri 11:34:33 AM 34.3147 -84.6022 348° North 467 537 34,000  Level Atlanta Center
Fri 11:35:33 AM 34.4356 -84.6306 349° North 461 531 34,000  Level Atlanta Center
Fri 11:36:33 AM 34.5608 -84.6642 348° North 461 531 34,000  Level Atlanta Center
Fri 11:37:33 AM 34.6692 -84.6903 349° North 450 518 34,000  Level Atlanta Center
Fri 11:38:33 AM 34.7919 -84.7192 349° North 444 511 34,000  Level Atlanta Center
Fri 11:39:33 AM 34.9172 -84.7531 347° North 449 517 34,000  Level Atlanta Center
Fri 11:40:33 AM 35.0400 -84.7819 349° North 449 517 34,000  Level Atlanta Center
Fri 11:41:33 AM 35.1650 -84.8136 348° North 449 517 34,000  Level Atlanta Center
Fri 11:42:33 AM 35.2858 -84.8453 348° North 449 517 34,000  Level Atlanta Center
Fri 11:43:33 AM 35.4128 -84.8772 348° North 449 517 34,000  Level Atlanta Center
Fri 11:44:33 AM 35.5358 -84.9092 348° North 449 517 34,000  Level Atlanta Center
Fri 11:45:33 AM 35.6586 -84.9411 348° North 449 517 34,000  Level Atlanta Center
Fri 11:46:33 AM 35.7919 -84.9783 347° North 449 517 34,000  Level Atlanta Center
Fri 11:48:15 AM 35.9964 -85.0244 350° North 464 534 34,000  Level Indianapolis Center
Fri 11:49:17 AM 36.1219 -85.0561 348° North 460 529 34,000  Level Indianapolis Center
Fri 11:50:19 AM 36.2706 -85.0939 348° North 453 521 34,000  Level Indianapolis Center
Fri 11:51:21 AM 36.3936 -85.1253 348° North 450 518 34,000  Level Indianapolis Center
Fri 11:52:23 AM 36.5164 -85.1567 348° North 449 517 34,000  Level Indianapolis Center
Fri 11:53:24 AM 36.6397 -85.1811 351° North 448 516 34,000  Level Indianapolis Center
Fri 11:54:26 AM 36.7614 -85.2069 350° North 445 512 34,000  Level Indianapolis Center
Fri 11:55:28 AM 36.8831 -85.2333 350° North 444 511 34,000  Level Indianapolis Center
Fri 11:56:30 AM 37.0053 -85.2600 350° North 444 511 34,000  Level Indianapolis Center
Fri 11:57:32 AM 37.1417 -85.2892 350° North 445 512 34,000  Level Indianapolis Center
Fri 11:58:33 AM 37.2644 -85.3167 350° North 446 513 34,000  Level Indianapolis Center
Fri 11:59:35 AM 37.3872 -85.3425 351° North 445 512 34,000  Level Indianapolis Center
Fri 12:00:37 PM 37.5089 -85.3692 350° North 443 510 34,000  Level Indianapolis Center
Fri 12:01:39 PM 37.6508 -85.4017 350° North 441 507 34,000  Level Indianapolis Center
Fri 12:02:41 PM 37.7725 -85.4275 350° North 442 509 34,000  Level Indianapolis Center
Fri 12:03:42 PM 37.8839 -85.4500 351° North 450 518 34,000  Level Indianapolis Center
Fri 12:04:44 PM 38.0044 -85.4781 350° North 444 511 34,000  Level Indianapolis Center
Fri 12:05:46 PM 38.1500 -85.5100 350° North 441 507 34,000  Level Indianapolis Center
Fri 12:06:48 PM 38.2706 -85.5375 350° North 440 506 34,000  Level Indianapolis Center
Fri 12:07:50 PM 38.3906 -85.5644 350° North 439 505 34,000  Level Indianapolis Center
Fri 12:08:52 PM 38.5119 -85.5906 350° North 441 507 34,000  Level Indianapolis Center
Fri 12:09:53 PM 38.6408 -85.6197 350° North 439 505 34,000  Level Indianapolis Center
Fri 12:10:55 PM 38.7603 -85.6469 350° North 439 505 34,000  Level Indianapolis Center
Fri 12:11:57 PM 38.8811 -85.6739 350° North 441 507 34,000  Level Indianapolis Center
Fri 12:12:59 PM 39.0008 -85.7019 350° North 439 505 34,000 -145 Level Indianapolis Center
Fri 12:14:01 PM 39.1458 -85.7356 350° North 441 507 33,700 -1,548 Descending Indianapolis Center
Fri 12:15:03 PM 39.2664 -85.7639 350° North 444 511 30,800 -1,790 Descending Indianapolis Center
Fri 12:16:05 PM 39.3883 -85.7906 350° North 445 512 30,000 -387 Descending Indianapolis Center
Fri 12:17:07 PM 39.5092 -85.8189 350° North 444 511 30,000  Level Indianapolis Center
Fri 12:18:09 PM 39.6297 -85.8450 351° North 444 511 30,000 -1,065 Level Indianapolis Center
Fri 12:19:11 PM 39.7739 -85.8794 350° North 444 511 27,800 -2,226 Descending Indianapolis Center
Fri 12:20:13 PM 39.8903 -85.9072 350° North 436 502 25,400 -1,839 Descending Indianapolis Center
Fri 12:21:15 PM 40.0031 -85.9364 349° North 422 486 24,000 -677 Descending Indianapolis Center
Fri 12:22:17 PM 40.1097 -85.9894 339° North 414 476 24,000  Level Indianapolis Center
Fri 12:23:17 PM 40.2172 -86.0381 341° North 414 476 24,000 -246 Level Chicago Center
Fri 12:24:19 PM 40.3253 -86.0889 340° North 415 478 23,500 -677 Descending Chicago Center
Fri 12:25:21 PM 40.4519 -86.1478 341° North 405 466 22,600 -823 Descending Chicago Center
Fri 12:26:23 PM 40.5553 -86.1981 340° North 398 458 21,800 -1,161 Descending Chicago Center
Fri 12:27:25 PM 40.6592 -86.2436 342° North 397 457 20,200 -1,839 Descending Chicago Center
Fri 12:28:27 PM 40.7553 -86.2931 339° North 378 435 18,000 -2,177 Descending Chicago Center
Fri 12:29:29 PM 40.8514 -86.3372 341° North 367 422 15,700 -2,226 Descending Chicago Center
Fri 12:30:31 PM 40.9481 -86.3847 340° North 369 425 13,400 -2,274 Descending Chicago Center
Fri 12:31:33 PM 41.0536 -86.4456 337° Northwest 351 404 11,000 -1,355 Descending Chicago Center
Fri 12:32:35 PM 41.1189 -86.5347 314° West 340 391 10,600 -484 Descending Chicago Center
Fri 12:33:37 PM 41.1781 -86.6283 310° West 334 384 10,000 -290 Descending Chicago Center
Fri 12:34:39 PM 41.2417 -86.7242 311° West 332 382 10,000  Level Chicago Center
Fri 12:35:41 PM 41.2981 -86.8167 309° West 326 375 10,000  Level Chicago Center
Fri 12:36:43 PM 41.3556 -86.9044 311° West 320 368 10,000 -384 Level Chicago Center
Fri 12:37:46 PM 41.4144 -86.9986 310° West 281 323 9,200 -1,056 Descending Chicago Center
Fri 12:38:48 PM 41.4619 -87.0747 310° West 273 314 7,800 -1,452 Descending Chicago Center
Fri 12:39:50 PM 41.5092 -87.1486 310° West 267 307 6,200 -871 Descending Chicago Center
Fri 12:40:52 PM 41.5411 -87.2392 295° West 272 313 6,000 -484 Descending Chicago Center
Fri 12:41:54 PM 41.5664 -87.3303 290° West 269 310 5,200 -968 Descending Chicago Center
Fri 12:42:56 PM 41.5983 -87.4383 292° West 265 305 4,000 -581 Descending Chicago Center
Fri 12:43:58 PM 41.6247 -87.5253 292° West 261 300 4,000 -48 Level Chicago Center
Fri 12:45:00 PM 41.6619 -87.5803 312° West 226 260 3,900 -532 Descending Chicago Center
Fri 12:46:02 PM 41.6986 -87.6314 314° West 204 235 2,900 -968 Descending Chicago Center
Fri 12:47:04 PM 41.7356 -87.6828 314° West 197 227 1,900 -677 Descending Chicago Center
Fri 12:48:06 PM 41.7822 -87.7017 343° North 168 193 1,500 -339 Descending Chicago Center
Fri 12:49:08 PM 41.8017 -87.7397 304° West 163 188 1,200 -290 Descending Chicago Center

Login

Don't have an account? Register now (free) for customized features, flight alerts, and more!